Time;durP1;ratioP1;P1;durP2;ratioP2;P2;SDS_P1;SDS_P2;PMS_P1;PMS_P2;Temp;Humidity;BMP_temperature;BMP_pressure;BME280_temperature;BME280_humidity;BME280_pressure;Samples;Min_cycle;Max_cycle;Signal;HPM_P1;HPM_P2
2022/06/19 00:01:09;;;;;;;;;;;26.10;42.60;;;30.29;27.05;101017.06;5115718;28;19922;-12
2022/06/19 00:03:40;;;;;;;;;;;26.10;42.60;;;30.23;27.06;101012.25;5116031;28;20026;-12
2022/06/19 00:06:06;;;;;;;;;;;26.10;42.60;;;30.29;27.03;101010.81;5098119;28;20276;-12
2022/06/19 00:08:31;;;;;;;;;;;26.10;42.90;;;30.30;26.98;101017.88;5115559;28;19927;-12
2022/06/19 00:10:59;;;;;;;;;;;26.10;42.60;;;30.29;26.89;101022.44;5115753;28;20367;-12
2022/06/19 00:13:24;;;;;;;;;;;26.10;42.60;;;30.25;26.92;101014.81;5115631;28;20006;-12
2022/06/19 00:15:52;;;;;;;;;;;26.10;42.60;;;30.26;26.97;101011.13;5115714;28;19964;-12
2022/06/19 00:18:19;;;;;;;;;;;26.10;42.60;;;30.23;27.14;101003.34;5115958;28;19916;-12
2022/06/19 00:20:45;;;;;;;;;;;26.10;42.60;;;30.22;26.94;101009.72;5115561;28;20061;-12
2022/06/19 00:23:10;;;;;;;;;;;26.10;42.60;;;30.27;27.17;101008.28;5095594;28;19916;-12
2022/06/19 00:25:37;;;;;;;;;;;26.10;42.60;;;30.25;27.18;101012.94;5115124;28;19922;-12
2022/06/19 00:28:04;;;;;;;;;;;26.10;42.60;;;30.30;27.13;101023.28;5114937;28;19945;-12
2022/06/19 00:30:30;;;;;;;;;;;26.10;42.60;;;30.26;27.05;101011.97;5115774;28;19923;-12
2022/06/19 00:32:57;;;;;;;;;;;26.10;42.60;;;30.26;27.21;101011.13;5115604;28;19916;-12
2022/06/19 00:35:26;;;;;;;;;;;26.10;42.60;;;30.26;27.03;100994.94;5115150;28;19916;-12
2022/06/19 00:37:51;;;;;;;;;;;26.10;42.60;;;30.25;26.94;100985.13;5115409;28;19915;-12
2022/06/19 00:40:17;;;;;;;;;;;26.10;42.60;;;30.27;26.99;100981.31;5115212;28;20297;-12
2022/06/19 00:42:43;;;;;;;;;;;26.10;42.60;;;30.29;26.84;100987.38;5115234;28;19924;-12
2022/06/19 00:45:33;;;;;;;;;;;26.10;42.60;;;30.26;27.11;100987.69;5115156;28;20386;-12
2022/06/19 00:48:09;;;;;;;;;;;26.10;42.60;;;30.27;27.08;100972.34;5114689;28;19916;-12
2022/06/19 00:50:35;;;;;;;;;;;26.10;42.60;;;30.24;27.07;100962.72;5096957;28;19916;-12
2022/06/19 00:53:02;;;;;;;;;;;26.10;42.60;;;30.26;27.04;100971.50;5095322;28;20241;-12
2022/06/19 00:55:31;;;;;;;;;;;26.10;42.60;;;30.23;27.13;100958.31;5094583;28;19923;-12
2022/06/19 00:58:00;;;;;;;;;;;26.10;42.60;;;30.26;27.04;100955.31;5114461;28;19916;-12
2022/06/19 01:00:28;;;;;;;;;;;26.10;42.50;;;30.24;27.07;100943.84;5096254;28;20038;-12
2022/06/19 01:02:59;;;;;;;;;;;26.10;42.50;;;30.27;26.99;100943.53;5114481;28;20018;-12
2022/06/19 01:05:27;;;;;;;;;;;26.10;42.50;;;30.24;26.94;100926.81;5095796;28;19964;-12
2022/06/19 01:07:54;;;;;;;;;;;26.10;42.60;;;30.25;27.04;100923.94;5080595;28;19916;-12
2022/06/19 01:10:20;;;;;;;;;;;26.10;42.60;;;30.25;27.03;100932.03;5114611;28;20053;-12
2022/06/19 01:12:46;;;;;;;;;;;26.10;42.60;;;30.28;26.99;100937.13;5114939;28;20045;-12
2022/06/19 01:15:14;;;;;;;;;;;26.10;42.60;;;30.21;27.14;100924.44;5115125;28;19921;-12
2022/06/19 01:17:40;;;;;;;;;;;26.10;42.60;;;30.25;26.87;100923.94;5096704;28;19938;-12
2022/06/19 01:20:11;;;;;;;;;;;26.10;42.60;;;30.24;27.12;100929.53;5114404;28;20018;-12
2022/06/19 01:23:01;;;;;;;;;;;26.00;42.50;;;30.28;26.99;100936.28;5114888;28;19922;-12
2022/06/19 01:25:31;;;;;;;;;;;26.10;42.60;;;30.21;27.09;100927.13;5094698;28;20364;-12
2022/06/19 01:30:49;;;;;;;;;;;26.10;42.50;;;30.21;27.08;100919.88;5099001;28;20377;-12
2022/06/19 01:33:19;;;;;;;;;;;26.10;42.60;;;30.23;27.10;100927.81;5114359;28;19923;-12
2022/06/19 01:35:49;;;;;;;;;;;26.10;42.60;;;30.21;27.07;100927.97;5095645;28;19916;-12
2022/06/19 01:38:18;;;;;;;;;;;26.00;42.50;;;30.26;27.00;100932.91;5113918;28;19916;-12
2022/06/19 01:40:48;;;;;;;;;;;26.10;42.60;;;30.25;27.12;100933.91;5096159;28;19915;-12
2022/06/19 01:43:14;;;;;;;;;;;26.10;42.60;;;30.22;27.13;100936.91;5114206;28;19916;-12
2022/06/19 01:45:41;;;;;;;;;;;26.10;42.60;;;30.24;27.15;100938.44;5114156;28;19916;-12
2022/06/19 01:48:07;;;;;;;;;;;26.10;42.60;;;30.24;27.12;100938.44;5094854;28;19923;-12
2022/06/19 01:50:33;;;;;;;;;;;26.10;42.60;;;30.21;26.88;100924.44;5114062;28;19915;-12
2022/06/19 01:53:05;;;;;;;;;;;26.00;42.60;;;30.20;27.12;100920.88;5095178;28;20302;-12
2022/06/19 01:55:32;;;;;;;;;;;26.00;42.60;;;30.22;26.94;100908.09;5095680;28;20002;-12
2022/06/19 01:57:59;;;;;;;;;;;26.00;42.60;;;30.23;26.97;100909.78;5113379;28;19916;-12
2022/06/19 02:00:29;;;;;;;;;;;26.00;42.60;;;30.22;27.04;100910.78;5094140;28;19922;-12
2022/06/19 02:03:00;;;;;;;;;;;26.00;42.60;;;30.18;26.85;100914.78;5113665;28;20018;-12
2022/06/19 02:05:26;;;;;;;;;;;26.00;42.60;;;30.15;27.00;100907.00;5095208;28;19922;-12
2022/06/19 02:07:53;;;;;;;;;;;26.00;42.70;;;30.17;27.14;100918.50;5113420;28;19916;-12
2022/06/19 02:10:19;;;;;;;;;;;26.00;42.70;;;30.20;27.05;100918.16;5076851;28;20368;-12
2022/06/19 02:12:44;;;;;;;;;;;25.90;42.60;;;30.19;27.12;100900.31;5113987;28;19921;-12
2022/06/19 02:15:12;;;;;;;;;;;26.00;42.70;;;30.18;27.06;100890.53;5113987;28;19916;-12
2022/06/19 02:17:42;;;;;;;;;;;26.00;42.70;;;30.19;27.12;100877.88;5093927;28;20049;-12
2022/06/19 02:20:10;;;;;;;;;;;26.00;42.70;;;30.11;27.11;100866.03;5094492;28;20291;-12
2022/06/19 02:22:36;;;;;;;;;;;25.90;42.70;;;30.17;27.17;100869.09;5095629;28;19916;-12
2022/06/19 02:25:03;;;;;;;;;;;25.90;42.70;;;30.12;27.18;100861.47;5113884;28;19950;-12
2022/06/19 02:27:31;;;;;;;;;;;25.90;42.70;;;30.16;27.08;100859.34;5095915;28;20263;-12
2022/06/19 02:29:57;;;;;;;;;;;25.90;42.70;;;30.13;27.19;100835.38;5112250;28;19923;-12
2022/06/19 02:32:26;;;;;;;;;;;25.90;42.70;;;30.09;27.12;100822.19;5113482;28;20363;-12
2022/06/19 02:34:52;;;;;;;;;;;25.90;42.70;;;30.15;27.01;100817.19;5113612;28;19919;-12
2022/06/19 02:37:24;;;;;;;;;;;25.90;42.70;;;30.11;27.20;100805.88;5113410;28;19916;-13
2022/06/19 02:40:07;;;;;;;;;;;25.90;42.70;;;30.07;27.09;100789.16;5113412;28;19945;-12
2022/06/19 02:42:40;;;;;;;;;;;25.90;42.70;;;30.13;27.10;100770.66;5095191;28;19922;-12
2022/06/19 02:45:20;;;;;;;;;;;25.90;42.70;;;30.11;27.23;100751.94;5113478;28;19965;-12
2022/06/19 02:47:47;;;;;;;;;;;25.90;42.60;;;30.08;26.93;100747.69;5113775;28;20385;-12
2022/06/19 02:50:33;;;;;;;;;;;25.90;42.70;;;30.06;27.07;100732.69;5113605;28;19915;-12
2022/06/19 02:52:58;;;;;;;;;;;25.90;42.70;;;30.09;27.21;100737.78;5112850;28;20271;-12
2022/06/19 02:55:24;;;;;;;;;;;25.90;42.70;;;30.05;27.07;100717.50;5113153;28;19916;-12
2022/06/19 02:57:51;;;;;;;;;;;25.90;42.70;;;30.10;26.94;100717.88;5113097;28;19915;-12
2022/06/19 03:00:21;;;;;;;;;;;25.90;42.70;;;30.10;27.19;100715.19;5113248;28;20252;-12
2022/06/19 03:02:50;;;;;;;;;;;25.90;42.70;;;30.05;27.28;100718.34;5113365;28;19916;-12
2022/06/19 03:05:19;;;;;;;;;;;25.90;42.80;;;30.09;27.14;100719.75;5112152;28;19916;-12
2022/06/19 03:07:45;;;;;;;;;;;25.80;42.70;;;30.08;27.11;100711.81;5112912;28;19922;-12
2022/06/19 03:10:11;;;;;;;;;;;25.90;42.70;;;30.09;27.21;100718.91;5113089;28;19916;-12
2022/06/19 03:12:37;;;;;;;;;;;25.90;43.30;;;30.05;27.33;100704.03;5113009;28;19973;-12
2022/06/19 03:15:03;;;;;;;;;;;25.90;42.70;;;30.05;27.02;100718.34;5112924;28;20333;-12
2022/06/19 03:17:29;;;;;;;;;;;25.90;42.70;;;30.08;27.04;100734.22;5114215;28;19916;-12
2022/06/19 03:19:55;;;;;;;;;;;25.90;42.70;;;30.08;27.13;100739.59;5116282;28;20409;-12
2022/06/19 03:22:21;;;;;;;;;;;25.90;42.70;;;30.05;27.07;100753.41;5116523;28;20010;-12
2022/06/19 03:24:47;;;;;;;;;;;25.90;42.80;;;30.06;27.19;100775.84;5116817;28;19915;-12
2022/06/19 03:27:13;;;;;;;;;;;25.90;42.70;;;30.07;27.10;100785.59;5116359;28;20010;-12
2022/06/19 03:29:39;;;;;;;;;;;25.90;42.70;;;30.03;27.15;100803.94;5114786;28;20370;-12
2022/06/19 03:32:05;;;;;;;;;;;25.90;42.70;;;30.05;27.15;100822.66;5116288;28;19922;-12
2022/06/19 03:34:31;;;;;;;;;;;25.90;42.70;;;30.05;27.22;100823.50;5116110;28;20409;-12
2022/06/19 03:36:57;;;;;;;;;;;25.90;42.70;;;30.06;27.32;100825.19;5098268;28;19919;-12
2022/06/19 03:39:24;;;;;;;;;;;25.90;42.80;;;30.07;27.18;100817.94;5116156;28;19915;-12
2022/06/19 03:41:49;;;;;;;;;;;25.90;42.80;;;30.06;27.20;100809.03;5116152;28;19915;-12
2022/06/19 03:44:15;;;;;;;;;;;25.90;42.80;;;30.02;27.14;100796.88;5116681;28;19916;-12
2022/06/19 03:46:41;;;;;;;;;;;25.80;42.70;;;30.07;27.20;100815.25;5116669;28;19922;-12
2022/06/19 03:49:09;;;;;;;;;;;25.80;42.70;;;30.02;27.21;100809.47;5115912;28;19923;-12
2022/06/19 03:51:34;;;;;;;;;;;25.80;42.70;;;30.02;27.16;100813.06;5116567;28;19951;-12
2022/06/19 03:54:00;;;;;;;;;;;25.80;42.70;;;30.05;27.24;100801.94;5116260;28;19958;-12
2022/06/19 03:56:30;;;;;;;;;;;25.80;42.80;;;29.99;27.24;100778.31;5116235;28;19923;-12
2022/06/19 03:58:57;;;;;;;;;;;25.90;42.80;;;30.04;27.32;100775.16;5115665;28;19965;-12
2022/06/19 04:01:24;;;;;;;;;;;25.80;42.80;;;30.06;27.34;100756.97;5115903;28;19915;-12
2022/06/19 04:03:51;;;;;;;;;;;25.80;42.80;;;30.02;27.20;100729.47;5115808;28;19916;-12
2022/06/19 04:06:18;;;;;;;;;;;25.80;42.70;;;30.04;27.24;100742.81;5097493;28;19919;-12
2022/06/19 04:08:47;;;;;;;;;;;25.80;42.70;;;30.06;27.32;100736.22;5115581;28;20498;-12
2022/06/19 04:11:14;;;;;;;;;;;25.80;42.70;;;30.04;27.20;100738.25;5115751;28;19916;-12
2022/06/19 04:13:40;;;;;;;;;;;25.90;42.70;;;30.04;27.25;100751.72;5115674;28;20386;-12
2022/06/19 04:16:07;;;;;;;;;;;25.90;42.70;;;30.06;27.12;100740.78;5095446;28;19916;-12
2022/06/19 04:18:33;;;;;;;;;;;25.80;42.60;;;30.00;27.10;100720.66;5115531;28;19922;-12
2022/06/19 04:20:59;;;;;;;;;;;25.80;42.60;;;30.03;27.15;100722.22;5096970;28;19916;-12
2022/06/19 04:23:27;;;;;;;;;;;25.80;42.70;;;30.02;27.34;100717.81;5115616;28;19916;-12
2022/06/19 04:25:55;;;;;;;;;;;25.80;42.70;;;30.05;27.12;100728.28;5115485;28;20275;-12
2022/06/19 04:28:24;;;;;;;;;;;25.80;42.70;;;30.06;27.13;100716.50;5115744;28;19916;-11
2022/06/19 04:30:52;;;;;;;;;;;25.80;42.70;;;30.06;27.30;100724.59;5115268;28;19958;-12
2022/06/19 04:33:20;;;;;;;;;;;25.80;42.70;;;30.03;27.16;100711.44;5115886;28;19924;-12
2022/06/19 04:35:47;;;;;;;;;;;25.80;42.60;;;30.05;27.07;100704.88;5113923;28;19916;-12
2022/06/19 04:38:13;;;;;;;;;;;25.80;42.60;;;30.05;27.05;100693.25;5115310;28;20055;-12
2022/06/19 04:40:39;;;;;;;;;;;25.90;42.70;;;30.06;27.14;100667.97;5115050;28;19977;-12
2022/06/19 04:43:05;;;;;;;;;;;25.90;42.60;;;30.04;27.15;100654.66;5114889;28;19931;-12
2022/06/19 04:45:31;;;;;;;;;;;25.90;42.60;;;30.05;27.29;100653.63;5115265;28;19923;-11
2022/06/19 04:47:57;;;;;;;;;;;25.90;42.60;;;30.06;27.07;100638.31;5114888;28;19916;-11
2022/06/19 04:50:23;;;;;;;;;;;25.90;42.50;;;30.08;27.10;100634.44;5114734;28;19945;-12
2022/06/19 04:52:48;;;;;;;;;;;25.90;42.50;;;30.10;27.12;100643.25;5115208;28;19916;-12
2022/06/19 04:55:15;;;;;;;;;;;26.00;42.60;;;30.06;27.23;100646.41;5115004;28;20325;-12
2022/06/19 04:57:41;;;;;;;;;;;25.90;42.50;;;30.09;27.01;100651.50;5114934;28;19920;-12
2022/06/19 05:00:10;;;;;;;;;;;26.00;42.50;;;30.13;27.08;100657.41;5115190;28;19923;-11
2022/06/19 05:02:36;;;;;;;;;;;26.00;42.50;;;30.13;27.00;100647.47;5115226;28;19919;-12
2022/06/19 05:05:02;;;;;;;;;;;26.10;42.40;;;30.16;27.06;100644.44;5114878;28;19916;-12
2022/06/19 05:07:28;;;;;;;;;;;26.10;42.30;;;30.18;27.16;100642.41;5114685;28;19923;-12
2022/06/19 05:09:54;;;;;;;;;;;26.10;42.30;;;30.24;27.02;100654.44;5115322;28;20413;-12
2022/06/19 05:12:19;;;;;;;;;;;26.10;42.20;;;30.24;26.78;100659.81;5114612;28;19923;-11
2022/06/19 05:14:45;;;;;;;;;;;26.10;42.10;;;30.28;26.93;100675.50;5114965;28;19916;-12
2022/06/19 05:17:11;;;;;;;;;;;26.20;42.20;;;30.32;27.01;100703.00;5114689;28;19916;-12
2022/06/19 05:19:40;;;;;;;;;;;26.20;42.10;;;30.32;26.91;100762.34;5114445;28;19981;-12
2022/06/19 05:22:06;;;;;;;;;;;26.20;42.10;;;30.35;26.83;100783.59;5114571;28;19989;-12
2022/06/19 05:24:32;;;;;;;;;;;26.30;42.10;;;30.34;26.91;100754.09;5114548;28;19999;-11
2022/06/19 05:26:57;;;;;;;;;;;26.20;42.10;;;30.35;26.95;100737.75;5115108;28;19916;-11
2022/06/19 05:29:23;;;;;;;;;;;26.20;42.20;;;30.30;26.87;100740.94;5114341;28;20346;-12
2022/06/19 05:31:49;;;;;;;;;;;26.20;42.20;;;30.27;26.89;100749.34;5114674;28;19941;-11
2022/06/19 05:34:14;;;;;;;;;;;26.20;42.20;;;30.30;26.99;100742.78;5096003;28;19927;-12
2022/06/19 05:36:40;;;;;;;;;;;26.20;42.20;;;30.29;26.91;100717.66;5114706;28;20325;-12
2022/06/19 05:39:06;;;;;;;;;;;26.20;42.20;;;30.29;27.02;100709.56;5113748;28;20010;-12
2022/06/19 05:41:33;;;;;;;;;;;26.20;42.20;;;30.32;26.90;100699.47;5114260;28;19924;-11
2022/06/19 05:43:59;;;;;;;;;;;26.30;42.20;;;30.33;26.89;100699.31;5114539;28;19923;-11
2022/06/19 05:46:25;;;;;;;;;;;26.30;42.10;;;30.40;26.83;100703.06;5114050;28;19916;-11
2022/06/19 05:48:50;;;;;;;;;;;26.30;42.10;;;30.42;26.74;100690.28;5114069;28;20036;-12
2022/06/19 05:51:22;;;;;;;;;;;26.30;42.00;;;30.40;26.90;100689.56;5114417;28;19938;-11
2022/06/19 05:53:50;;;;;;;;;;;26.30;42.00;;;30.40;26.88;100697.66;5114125;28;20291;-11
2022/06/19 05:56:16;;;;;;;;;;;26.30;42.00;;;30.43;26.94;100743.22;5114005;28;19915;-12
2022/06/19 05:58:41;;;;;;;;;;;26.30;42.10;;;30.39;26.78;100767.97;5114677;28;19915;-11
2022/06/19 06:01:09;;;;;;;;;;;26.20;42.20;;;30.39;26.94;100776.94;5113926;28;20413;-12
2022/06/19 06:03:34;;;;;;;;;;;26.20;42.10;;;30.36;26.83;100765.59;5113993;28;19927;-12
2022/06/19 06:06:05;;;;;;;;;;;26.20;42.20;;;30.38;26.86;100779.78;5114223;28;19922;-12
2022/06/19 06:08:34;;;;;;;;;;;26.20;42.20;;;30.33;26.87;100772.13;5113895;28;19916;-12
2022/06/19 06:11:01;;;;;;;;;;;26.20;42.20;;;30.32;26.84;100761.50;5113936;28;19916;-12
2022/06/19 06:13:30;;;;;;;;;;;26.20;42.30;;;30.35;26.96;100753.09;5113789;28;19915;-12
2022/06/19 06:15:58;;;;;;;;;;;26.10;42.20;;;30.32;26.88;100735.34;5114079;28;20350;-12
2022/06/19 06:18:25;;;;;;;;;;;26.10;42.30;;;30.32;26.74;100723.72;5113757;28;19923;-12
2022/06/19 06:20:57;;;;;;;;;;;26.10;42.30;;;30.25;27.06;100716.28;5113983;28;20367;-12
2022/06/19 06:23:26;;;;;;;;;;;26.10;42.30;;;30.32;26.90;100726.44;5112076;28;19916;-11
2022/06/19 06:26:01;;;;;;;;;;;26.10;42.30;;;30.31;26.80;100717.50;5113848;28;19916;-11
2022/06/19 06:28:29;;;;;;;;;;;26.10;42.40;;;30.29;26.84;100709.56;5113432;28;19915;-12
2022/06/19 06:30:57;;;;;;;;;;;26.10;42.40;;;30.28;27.02;100704.34;5113946;28;19916;-11
2022/06/19 06:33:23;;;;;;;;;;;26.10;42.40;;;30.25;26.88;100677.69;5113692;28;19930;-12
2022/06/19 06:35:49;;;;;;;;;;;26.10;42.40;;;30.23;26.86;100675.13;5113557;28;19920;-11
2022/06/19 06:38:15;;;;;;;;;;;26.10;42.30;;;30.26;26.92;100665.91;5111969;28;19924;-12
2022/06/19 06:40:41;;;;;;;;;;;26.10;42.30;;;30.30;26.89;100668.13;5113411;28;20315;-12
2022/06/19 06:43:06;;;;;;;;;;;26.10;42.30;;;30.26;26.81;100661.34;5113288;28;20283;-12
2022/06/19 06:45:32;;;;;;;;;;;26.10;42.20;;;30.25;26.84;100659.63;5113285;28;19922;-12
2022/06/19 06:47:58;;;;;;;;;;;26.10;42.30;;;30.27;27.01;100671.13;5113016;28;21361;-12
2022/06/19 06:50:24;;;;;;;;;;;26.10;42.30;;;30.28;26.85;100670.09;5113252;28;19916;-12
2022/06/19 06:52:50;;;;;;;;;;;26.10;42.30;;;30.26;26.93;100655.13;5116891;28;19915;-12
2022/06/19 06:55:15;;;;;;;;;;;26.10;42.30;;;30.27;26.89;100646.84;5116929;28;19924;-11
2022/06/19 06:57:41;;;;;;;;;;;26.10;42.30;;;30.26;26.91;100649.72;5116756;28;20006;-11
2022/06/19 07:00:09;;;;;;;;;;;26.10;42.20;;;30.30;26.75;100648.38;5116860;28;19999;-12
2022/06/19 07:02:35;;;;;;;;;;;26.10;42.20;;;30.25;26.95;100621.88;5116781;28;19920;-11
2022/06/19 07:05:00;;;;;;;;;;;26.10;42.20;;;30.29;26.57;100611.63;5116818;28;19916;-11
2022/06/19 07:07:26;;;;;;;;;;;26.10;42.20;;;30.32;26.88;100605.06;5117073;28;19915;-12
2022/06/19 07:09:52;;;;;;;;;;;26.10;42.10;;;30.33;26.80;100602.19;5116648;28;19915;-11
2022/06/19 07:12:17;;;;;;;;;;;26.10;42.10;;;30.33;26.96;100602.19;5116922;28;20014;-12
2022/06/19 07:14:43;;;;;;;;;;;26.10;42.10;;;30.34;26.82;100601.19;5117102;28;19938;-12
2022/06/19 07:17:11;;;;;;;;;;;26.10;42.00;;;30.35;26.73;100596.66;5116635;28;19969;-12
2022/06/19 07:19:37;;;;;;;;;;;26.10;42.00;;;30.33;26.73;100596.81;5116322;28;20359;-12
2022/06/19 07:22:02;;;;;;;;;;;26.10;42.00;;;30.32;26.72;100587.00;5116807;28;19994;-12
2022/06/19 07:24:28;;;;;;;;;;;26.20;42.00;;;30.37;26.82;100589.25;5116762;28;19916;-12
2022/06/19 07:26:54;;;;;;;;;;;26.20;42.00;;;30.36;26.76;100574.06;5117132;28;19983;-12
2022/06/19 07:29:19;;;;;;;;;;;26.20;42.00;;;30.40;26.81;100570.88;5116285;28;19915;-11
2022/06/19 07:31:45;;;;;;;;;;;26.20;41.90;;;30.40;26.79;100567.34;5116319;28;20024;-12
2022/06/19 07:34:11;;;;;;;;;;;26.30;41.90;;;30.44;26.68;100557.94;5116321;28;19916;-12
2022/06/19 07:36:36;;;;;;;;;;;26.30;41.80;;;30.42;26.58;100541.91;5116305;28;20369;-12
2022/06/19 07:39:04;;;;;;;;;;;26.30;41.80;;;30.41;26.66;100551.00;5116005;28;20033;-12
2022/06/19 07:41:29;;;;;;;;;;;26.30;41.80;;;30.39;26.59;100546.78;5116231;28;19916;-12
2022/06/19 07:43:56;;;;;;;;;;;26.30;41.70;;;30.44;26.64;100558.78;5116395;28;19938;-12
2022/06/19 07:46:23;;;;;;;;;;;26.40;41.70;;;30.52;26.51;100567.88;5116145;28;19923;-12
2022/06/19 07:51:33;;;;;;;;;;;26.40;41.40;;;30.54;26.44;100564.03;5116356;28;19923;-12
2022/06/19 07:53:59;;;;;;;;;;;26.50;41.20;;;30.57;26.41;100566.41;5116040;28;19915;-12
2022/06/19 07:56:25;;;;;;;;;;;26.50;41.20;;;30.64;26.39;100578.22;5115891;28;19923;-12
2022/06/19 07:58:51;;;;;;;;;;;26.50;41.10;;;30.61;26.27;100556.13;5115871;28;19915;-12
2022/06/19 08:01:17;;;;;;;;;;;26.50;41.10;;;30.64;26.23;100582.78;5097640;28;20283;-12
2022/06/19 08:03:42;;;;;;;;;;;26.40;41.00;;;30.63;26.29;100581.06;5115838;28;19916;-12
2022/06/19 08:06:08;;;;;;;;;;;26.40;41.10;;;30.58;26.00;100572.63;5097451;28;20428;-12
2022/06/19 08:08:35;;;;;;;;;;;26.40;41.10;;;30.63;26.25;100583.75;5097371;28;19920;-12
2022/06/19 08:11:01;;;;;;;;;;;26.40;41.00;;;30.64;26.17;100596.25;5115856;28;19916;-12
2022/06/19 08:13:30;;;;;;;;;;;26.50;41.10;;;30.65;25.98;100592.53;5115565;28;20011;-12
2022/06/19 08:16:02;;;;;;;;;;;26.40;41.00;;;30.61;26.15;100583.09;5115982;28;19915;-12
2022/06/19 08:18:29;;;;;;;;;;;26.50;41.10;;;30.66;26.19;100597.78;5116015;28;19960;-12
2022/06/19 08:20:54;;;;;;;;;;;26.50;41.00;;;30.70;26.07;100614.47;5115542;28;19923;-12
2022/06/19 08:23:20;;;;;;;;;;;26.50;40.90;;;30.73;26.19;100611.44;5116153;28;19916;-12
2022/06/19 08:25:47;;;;;;;;;;;26.60;41.00;;;30.73;25.98;100616.84;5115486;28;19915;-12
2022/06/19 08:28:15;;;;;;;;;;;26.60;40.90;;;30.68;25.88;100616.50;5115232;28;19915;-13
2022/06/19 08:30:42;;;;;;;;;;;26.60;41.00;;;30.71;26.16;100648.56;5115129;28;19920;-12
2022/06/19 08:33:09;;;;;;;;;;;26.50;40.90;;;30.70;26.02;100656.81;5115480;28;19916;-12
2022/06/19 08:35:44;;;;;;;;;;;26.50;41.10;;;30.67;26.03;100669.63;5115511;28;19964;-12
2022/06/19 08:38:15;;;;;;;;;;;26.50;41.30;;;30.64;26.14;100652.94;5115144;28;20413;-12
2022/06/19 08:40:55;;;;;;;;;;;26.40;41.30;;;30.62;26.24;100663.03;5115014;28;19915;-12
2022/06/19 08:43:40;;;;;;;;;;;26.40;41.30;;;30.66;26.16;100683.28;5097507;28;19916;-12
2022/06/19 08:46:21;;;;;;;;;;;26.40;41.30;;;30.62;26.15;100690.00;5115164;28;19923;-12
2022/06/19 08:49:00;;;;;;;;;;;26.40;41.40;;;30.60;26.20;100686.63;5096710;28;19931;-12
2022/06/19 08:51:43;;;;;;;;;;;26.40;41.30;;;30.61;26.11;100702.66;5095093;28;20318;-12
2022/06/19 08:54:38;;;;;;;;;;;26.40;41.30;;;30.62;26.24;100688.16;5096748;28;19916;-12
2022/06/19 08:57:25;;;;;;;;;;;26.50;41.40;;;30.57;26.23;100660.84;5092746;28;19973;-12
2022/06/19 09:00:09;;;;;;;;;;;26.40;41.30;;;30.59;26.22;100655.25;5096020;28;19946;-12
2022/06/19 09:02:56;;;;;;;;;;;26.40;41.20;;;30.65;26.38;100668.09;5096641;28;19919;-12
2022/06/19 09:05:36;;;;;;;;;;;26.50;41.30;;;30.61;26.43;100658.66;5096562;28;20294;-12
2022/06/19 09:08:17;;;;;;;;;;;26.50;41.30;;;30.64;26.22;100672.66;5114623;28;19916;-12
2022/06/19 09:11:18;;;;;;;;;;;26.50;41.20;;;30.66;26.28;100677.88;5115100;28;19938;-12
2022/06/19 09:13:58;;;;;;;;;;;26.50;41.20;;;30.66;26.20;100680.59;5109119;28;20014;-12
2022/06/19 09:16:23;;;;;;;;;;;26.50;41.30;;;30.67;26.21;100699.31;5095402;28;19963;-12
2022/06/19 09:19:15;;;;;;;;;;;26.50;41.30;;;30.69;26.24;100682.97;5114529;28;19955;-12
2022/06/19 09:22:17;;;;;;;;;;;26.50;41.30;;;30.71;26.20;100683.63;5096046;28;20429;-12
2022/06/19 09:24:56;;;;;;;;;;;26.60;41.30;;;30.68;26.30;100678.56;5114626;28;19915;-12
2022/06/19 09:27:29;;;;;;;;;;;26.60;41.30;;;30.72;25.99;100671.81;5114591;28;19923;-12
2022/06/19 09:30:00;;;;;;;;;;;26.60;41.30;;;30.73;26.23;100680.78;5096520;28;19924;-12
2022/06/19 09:32:30;;;;;;;;;;;26.60;41.20;;;30.74;26.04;100683.31;5096148;28;19942;-12
2022/06/19 09:35:11;;;;;;;;;;;26.60;41.20;;;30.76;26.06;100689.38;5114369;28;20299;-12
2022/06/19 09:37:43;;;;;;;;;;;26.60;41.20;;;30.80;26.20;100703.41;5094697;28;19923;-13
2022/06/19 09:40:22;;;;;;;;;;;26.60;41.20;;;30.81;26.06;100716.72;5114295;28;19915;-12
2022/06/19 09:42:53;;;;;;;;;;;26.60;41.20;;;30.83;25.94;100721.97;5094384;28;19916;-12
2022/06/19 09:45:31;;;;;;;;;;;26.60;41.20;;;30.79;26.37;100715.19;5114150;28;20278;-12
2022/06/19 09:48:30;;;;;;;;;;;26.60;41.20;;;30.83;26.05;100746.25;5094932;28;19916;-12
2022/06/19 09:51:16;;;;;;;;;;;26.60;41.20;;;30.75;25.99;100757.84;5095960;28;19915;-12
2022/06/19 09:53:41;;;;;;;;;;;26.60;41.20;;;30.79;26.20;100763.78;5114051;28;20347;-12
2022/06/19 09:56:24;;;;;;;;;;;26.60;41.30;;;30.78;26.11;100767.50;5114185;28;19915;-12
2022/06/19 09:59:07;;;;;;;;;;;26.50;41.90;;;30.71;26.18;100759.22;5112749;28;19916;-12
2022/06/19 10:01:33;;;;;;;;;;;26.50;41.40;;;30.70;26.10;100756.66;5113986;28;20409;-12
2022/06/19 10:04:05;;;;;;;;;;;26.50;41.50;;;30.65;26.20;100749.88;5095647;28;19916;-12
2022/06/19 10:06:51;;;;;;;;;;;26.40;41.50;;;30.69;26.16;100755.84;5094655;28;20026;-12
2022/06/19 10:09:22;;;;;;;;;;;26.40;41.50;;;30.64;26.14;100750.91;5112948;28;19965;-12
2022/06/19 10:11:53;;;;;;;;;;;26.40;41.60;;;30.62;26.23;100752.94;5114499;28;19972;-12
2022/06/19 10:14:27;;;;;;;;;;;26.40;41.50;;;30.68;26.21;100773.03;5113821;28;20302;-12
2022/06/19 10:17:01;;;;;;;;;;;26.50;41.60;;;30.66;26.12;100775.88;5113285;28;19915;-12
2022/06/19 10:19:46;;;;;;;;;;;26.40;41.50;;;30.65;26.23;100757.16;5095529;28;19915;-12
2022/06/19 10:22:26;;;;;;;;;;;26.40;41.50;;;30.63;26.39;100767.25;5095559;28;19946;-12
2022/06/19 10:25:02;;;;;;;;;;;26.40;41.50;;;30.62;26.41;100771.81;5114020;28;19915;-12
2022/06/19 10:27:49;;;;;;;;;;;26.40;41.60;;;30.59;26.19;100757.78;5093278;28;19916;-12
2022/06/19 10:30:22;;;;;;;;;;;26.40;41.60;;;30.56;26.30;100760.84;5113328;28;20279;-12
2022/06/19 10:33:15;;;;;;;;;;;26.40;41.60;;;30.61;26.38;100777.38;5095894;28;19969;-12
2022/06/19 10:35:40;;;;;;;;;;;26.40;41.60;;;30.58;26.38;100751.56;5113892;28;19926;-12
2022/06/19 10:38:25;;;;;;;;;;;26.40;41.60;;;30.58;26.38;100759.66;5113382;28;19916;-12
2022/06/19 10:42:00;;;;;;;;;;;26.40;41.70;;;30.55;26.40;100770.75;5113759;28;19986;-12
2022/06/19 10:44:21;;;;;;;;;;;26.30;41.70;;;30.53;26.40;100796.22;5099569;28;19915;-12
2022/06/19 10:46:52;;;;;;;;;;;26.30;41.80;;;30.46;26.44;100796.84;5113417;28;19915;-12
2022/06/19 10:49:34;;;;;;;;;;;26.30;41.80;;;30.46;26.45;100769.88;5113405;28;20002;-12
2022/06/19 10:52:15;;;;;;;;;;;26.30;41.80;;;30.50;26.39;100766.88;5094987;28;19915;-12
2022/06/19 10:55:07;;;;;;;;;;;26.20;41.80;;;30.50;26.44;100773.09;5095041;28;19985;-12
2022/06/19 10:57:43;;;;;;;;;;;26.30;41.90;;;30.45;26.59;100775.44;5094868;28;20343;-12
2022/06/19 11:00:10;;;;;;;;;;;26.30;41.80;;;30.46;26.48;100760.94;5113593;28;20356;-12
2022/06/19 11:05:57;;;;;;;;;;;26.30;41.90;;;30.47;26.55;100752.69;5098662;28;20011;-13
2022/06/19 11:08:26;;;;;;;;;;;26.30;41.80;;;30.46;26.50;100747.47;5113011;28;19968;-13
2022/06/19 11:10:54;;;;;;;;;;;26.30;41.90;;;30.45;26.48;100751.16;5094861;28;19915;-13
2022/06/19 11:13:21;;;;;;;;;;;26.30;41.90;;;30.47;26.46;100754.53;5093050;28;20058;-12
2022/06/19 11:16:02;;;;;;;;;;;26.30;41.90;;;30.48;26.44;100769.72;5094673;28;19915;-13
2022/06/19 11:18:28;;;;;;;;;;;26.30;41.90;;;30.45;26.48;100768.16;5094078;28;19975;-13
2022/06/19 11:21:12;;;;;;;;;;;26.30;41.90;;;30.45;26.44;100770.03;5112773;28;20128;-13
2022/06/19 11:23:49;;;;;;;;;;;26.30;42.40;;;30.47;26.66;100776.97;5112993;28;20252;-11
2022/06/19 11:26:17;;;;;;;;;;;26.30;41.80;;;30.50;26.56;100786.59;5113196;28;20283;-11
2022/06/19 11:29:13;;;;;;;;;;;26.30;41.80;;;30.52;26.65;100789.97;5112806;28;20024;-11
2022/06/19 11:31:59;;;;;;;;;;;26.30;41.80;;;30.52;26.63;100792.66;5086219;28;20265;-11